Time,TemperatureF,DewpointF,PressureIn,WindDirection,WindDirectionDegrees,WindSpeedMPH,WindSpeedGustMPH,Humidity,HourlyPrecipIn,Conditions,Clouds,dailyrainin,SoftwareType,DateUTC
2013-02-11 00:00:00,26.3,19.8,29.99,NW,319,3.0,10.0,76,0.00,,,0.19,VWS V14.01,2013-02-11 06:00:00,
2013-02-11 00:05:00,26.3,19.8,30.00,NNW,330,5.0,8.0,76,0.00,,,0.00,VWS V14.01,2013-02-11 06:05:00,
2013-02-11 00:10:00,26.3,19.8,30.00,North,359,5.0,12.0,76,0.00,,,0.00,VWS V14.01,2013-02-11 06:10:00,
2013-02-11 00:15:00,26.3,19.1,30.00,North,0,10.0,12.0,74,0.00,,,0.00,VWS V14.01,2013-02-11 06:15:00,
2013-02-11 00:20:00,26.3,19.1,30.00,NNW,339,6.0,8.0,74,0.00,,,0.00,VWS V14.01,2013-02-11 06:20:00,
2013-02-11 00:25:00,26.1,18.6,30.00,NW,313,2.0,11.0,73,0.00,,,0.00,VWS V14.01,2013-02-11 06:25:00,
2013-02-11 00:30:00,26.1,18.3,30.00,North,349,6.0,13.0,72,0.00,,,0.00,VWS V14.01,2013-02-11 06:30:00,
2013-02-11 00:35:00,26.1,18.6,30.01,NNW,347,4.0,12.0,73,0.00,,,0.00,VWS V14.01,2013-02-11 06:35:00,
2013-02-11 00:40:00,26.0,18.5,30.01,NW,315,3.0,12.0,73,0.00,,,0.00,VWS V14.01,2013-02-11 06:40:00,
2013-02-11 00:45:00,26.0,18.9,30.01,NNW,347,5.0,12.0,74,0.00,,,0.00,VWS V14.01,2013-02-11 06:45:00,
2013-02-11 00:50:00,25.8,19.3,30.01,NNW,337,3.0,10.0,76,0.00,,,0.00,VWS V14.01,2013-02-11 06:50:00,
2013-02-11 00:55:00,25.7,19.8,30.01,NW,318,2.0,10.0,78,0.00,,,0.00,VWS V14.01,2013-02-11 06:55:00,
2013-02-11 01:00:00,25.7,19.5,30.02,NW,325,4.0,10.0,77,0.00,,,0.00,VWS V14.01,2013-02-11 07:00:00,
2013-02-11 01:05:00,25.6,19.4,30.02,NW,323,6.0,8.0,77,0.00,,,0.00,VWS V14.01,2013-02-11 07:05:00,
2013-02-11 01:10:00,25.4,19.8,30.02,NW,304,6.0,8.0,79,0.00,,,0.00,VWS V14.01,2013-02-11 07:10:00,
2013-02-11 01:15:00,25.3,19.7,30.02,NW,315,3.0,10.0,79,0.00,,,0.00,VWS V14.01,2013-02-11 07:15:00,
2013-02-11 01:20:00,25.1,19.2,30.03,NW,309,6.0,10.0,78,0.00,,,0.00,VWS V14.01,2013-02-11 07:20:00,
2013-02-11 01:25:00,25.1,18.9,30.03,WNW,302,3.0,10.0,77,0.00,,,0.00,VWS V14.01,2013-02-11 07:25:00,
2013-02-11 01:30:00,25.0,19.1,30.03,NW,325,5.0,10.0,78,0.00,,,0.00,VWS V14.01,2013-02-11 07:30:00,
2013-02-11 01:35:00,25.0,18.8,30.03,NW,309,5.0,10.0,77,0.00,,,0.00,VWS V14.01,2013-02-11 07:35:00,
2013-02-11 01:40:00,24.8,18.0,30.03,WNW,299,5.0,10.0,75,0.00,,,0.00,VWS V14.01,2013-02-11 07:40:00,
2013-02-11 01:45:00,24.8,18.3,30.03,NW,311,7.0,10.0,76,0.00,,,0.00,VWS V14.01,2013-02-11 07:45:00,
2013-02-11 01:50:00,24.7,17.9,30.05,NW,304,7.0,10.0,75,0.00,,,0.00,VWS V14.01,2013-02-11 07:50:00,
2013-02-11 01:55:00,24.7,17.9,30.05,NNW,332,7.0,10.0,75,0.00,,,0.00,VWS V14.01,2013-02-11 07:55:00,
2013-02-11 02:00:00,24.7,17.9,30.05,WNW,299,2.0,10.0,75,0.00,,,0.00,VWS V14.01,2013-02-11 08:00:00,
2013-02-11 02:05:00,24.7,16.6,30.05,NW,311,8.0,11.0,71,0.00,,,0.00,VWS V14.01,2013-02-11 08:05:00,
2013-02-11 02:10:00,24.7,16.6,30.05,WNW,292,5.0,11.0,71,0.00,,,0.00,VWS V14.01,2013-02-11 08:10:00,
2013-02-11 02:15:00,24.7,16.0,30.05,NW,312,6.0,11.0,69,0.00,,,0.00,VWS V14.01,2013-02-11 08:15:00,
2013-02-11 02:20:00,24.5,15.8,30.05,NW,323,5.0,10.0,69,0.00,,,0.00,VWS V14.01,2013-02-11 08:20:00,
2013-02-11 02:25:00,24.5,15.8,30.05,NNW,328,3.0,10.0,69,0.00,,,0.00,VWS V14.01,2013-02-11 08:25:00,
2013-02-11 02:30:00,24.4,16.0,30.06,NW,318,3.0,10.0,70,0.00,,,0.00,VWS V14.01,2013-02-11 08:30:00,
2013-02-11 02:35:00,24.2,15.8,30.06,WNW,294,6.0,10.0,70,0.00,,,0.00,VWS V14.01,2013-02-11 08:35:00,
2013-02-11 02:40:00,24.1,16.1,30.06,WNW,302,3.0,10.0,71,0.00,,,0.00,VWS V14.01,2013-02-11 08:40:00,
2013-02-11 02:45:00,24.1,15.8,30.06,WNW,299,7.0,10.0,70,0.00,,,0.00,VWS V14.01,2013-02-11 08:45:00,
2013-02-11 02:50:00,23.9,15.2,30.07,WNW,285,8.0,10.0,69,0.00,,,0.00,VWS V14.01,2013-02-11 08:50:00,
2013-02-11 02:55:00,23.9,15.2,30.07,NW,323,5.0,10.0,69,0.00,,,0.00,VWS V14.01,2013-02-11 08:55:00,
2013-02-11 03:00:00,23.9,15.6,30.07,NW,304,7.0,10.0,70,0.00,,,0.00,VWS V14.01,2013-02-11 09:00:00,
2013-02-11 03:05:00,23.8,15.8,30.07,NW,304,3.0,6.0,71,0.00,,,0.00,VWS V14.01,2013-02-11 09:05:00,
2013-02-11 03:10:00,23.8,15.1,30.07,WNW,295,5.0,9.0,69,0.00,,,0.00,VWS V14.01,2013-02-11 09:10:00,
2013-02-11 03:15:00,23.6,15.3,30.07,NW,313,3.0,9.0,70,0.00,,,0.00,VWS V14.01,2013-02-11 09:15:00,
2013-02-11 03:20:00,23.6,14.9,30.07,NW,323,4.0,7.0,69,0.00,,,0.00,VWS V14.01,2013-02-11 09:20:00,
2013-02-11 03:25:00,23.6,14.9,30.07,NW,308,8.0,11.0,69,0.00,,,0.00,VWS V14.01,2013-02-11 09:25:00,
2013-02-11 03:30:00,23.6,14.9,30.07,NW,312,8.0,11.0,69,0.00,,,0.00,VWS V14.01,2013-02-11 09:30:00,
2013-02-11 03:35:00,23.6,14.6,30.07,NW,306,6.0,10.0,68,0.00,,,0.00,VWS V14.01,2013-02-11 09:35:00,
2013-02-11 03:40:00,23.6,14.9,30.07,NW,312,5.0,10.0,69,0.00,,,0.00,VWS V14.01,2013-02-11 09:40:00,
2013-02-11 03:45:00,23.6,14.6,30.07,North,353,5.0,11.0,68,0.00,,,0.00,VWS V14.01,2013-02-11 09:45:00,
2013-02-11 03:50:00,23.6,14.3,30.07,NNW,339,6.0,14.0,67,0.00,,,0.00,VWS V14.01,2013-02-11 09:50:00,
2013-02-11 03:55:00,23.6,13.9,30.07,NNW,344,5.0,14.0,66,0.00,,,0.00,VWS V14.01,2013-02-11 09:55:00,
2013-02-11 04:00:00,23.5,14.2,30.07,NW,313,3.0,14.0,67,0.00,,,0.00,VWS V14.01,2013-02-11 10:00:00,
2013-02-11 04:05:00,23.5,14.5,30.07,NW,319,6.0,10.0,68,0.00,,,0.00,VWS V14.01,2013-02-11 10:05:00,
2013-02-11 04:10:00,23.5,13.8,30.07,NNW,339,2.0,12.0,66,0.00,,,0.00,VWS V14.01,2013-02-11 10:10:00,
2013-02-11 04:15:00,23.5,13.5,30.07,NW,316,2.0,12.0,65,0.00,,,0.00,VWS V14.01,2013-02-11 10:15:00,
2013-02-11 04:20:00,23.5,14.2,30.08,WNW,285,4.0,10.0,67,0.00,,,0.00,VWS V14.01,2013-02-11 10:20:00,
2013-02-11 04:25:00,23.5,13.8,30.08,NW,312,3.0,10.0,66,0.00,,,0.00,VWS V14.01,2013-02-11 10:25:00,
2013-02-11 04:30:00,23.3,14.0,30.08,NW,312,4.0,10.0,67,0.00,,,0.00,VWS V14.01,2013-02-11 10:30:00,
2013-02-11 04:35:00,23.2,14.2,30.09,NNW,333,2.0,7.0,68,0.00,,,0.00,VWS V14.01,2013-02-11 10:35:00,
2013-02-11 04:40:00,22.9,14.9,30.09,NW,308,5.0,7.0,71,0.00,,,0.00,VWS V14.01,2013-02-11 10:40:00,
2013-02-11 04:45:00,22.7,15.1,30.09,NNW,330,3.0,7.0,72,0.00,,,0.00,VWS V14.01,2013-02-11 10:45:00,
2013-02-11 04:50:00,22.7,15.4,30.08,NNW,340,1.0,7.0,73,0.00,,,0.00,VWS V14.01,2013-02-11 10:50:00,
2013-02-11 04:55:00,22.5,15.5,30.08,NW,313,2.0,7.0,74,0.00,,,0.00,VWS V14.01,2013-02-11 10:55:00,
2013-02-11 05:00:00,22.4,15.7,30.08,NW,315,0.0,7.0,75,0.00,,,0.00,VWS V14.01,2013-02-11 11:00:00,
2013-02-11 05:05:00,22.2,15.8,30.08,NW,319,1.0,2.0,76,0.00,,,0.00,VWS V14.01,2013-02-11 11:05:00,
2013-02-11 05:10:00,22.2,15.2,30.08,NW,322,0.0,5.0,74,0.00,,,0.00,VWS V14.01,2013-02-11 11:10:00,
2013-02-11 05:15:00,21.9,15.8,30.09,NW,322,2.0,5.0,77,0.00,,,0.00,VWS V14.01,2013-02-11 11:15:00,
2013-02-11 05:20:00,21.8,15.4,30.09,NW,322,2.0,3.0,76,0.00,,,0.00,VWS V14.01,2013-02-11 11:20:00,
2013-02-11 05:25:00,21.6,15.8,30.09,NW,322,2.0,3.0,78,0.00,,,0.00,VWS V14.01,2013-02-11 11:25:00,
2013-02-11 05:30:00,21.4,15.6,30.11,NW,322,2.0,4.0,78,0.00,,,0.00,VWS V14.01,2013-02-11 11:30:00,
2013-02-11 05:35:00,21.3,15.8,30.11,NW,322,1.0,3.0,79,0.00,,,0.00,VWS V14.01,2013-02-11 11:35:00,
2013-02-11 05:40:00,20.8,15.9,30.11,NW,322,2.0,3.0,81,0.00,,,0.00,VWS V14.01,2013-02-11 11:40:00,
2013-02-11 05:45:00,20.5,15.6,30.12,NW,322,2.0,3.0,81,0.00,,,0.00,VWS V14.01,2013-02-11 11:45:00,
2013-02-11 05:50:00,20.2,15.3,30.12,NW,322,2.0,5.0,81,0.00,,,0.00,VWS V14.01,2013-02-11 11:50:00,
2013-02-11 05:55:00,20.2,15.6,30.12,NW,322,1.0,5.0,82,0.00,,,0.00,VWS V14.01,2013-02-11 11:55:00,
2013-02-11 06:00:00,20.0,15.7,30.12,NW,322,1.0,5.0,83,0.00,,,0.00,VWS V14.01,2013-02-11 12:00:00,
2013-02-11 06:05:00,19.9,15.9,30.12,NW,322,1.0,2.0,84,0.00,,,0.00,VWS V14.01,2013-02-11 12:05:00,
2013-02-11 06:10:00,19.9,16.1,30.12,NW,322,0.0,2.0,85,0.00,,,0.00,VWS V14.01,2013-02-11 12:10:00,
2013-02-11 06:15:00,19.7,15.9,30.13,NW,322,0.0,2.0,85,0.00,,,0.00,VWS V14.01,2013-02-11 12:15:00,
2013-02-11 06:20:00,19.7,15.9,30.13,NW,322,0.0,1.0,85,0.00,,,0.00,VWS V14.01,2013-02-11 12:20:00,
2013-02-11 06:25:00,19.5,16.0,30.13,NW,322,0.0,1.0,86,0.00,,,0.00,VWS V14.01,2013-02-11 12:25:00,
2013-02-11 06:30:00,18.6,15.6,30.14,NW,322,3.0,5.0,88,0.00,,,0.00,VWS V14.01,2013-02-11 12:30:00,
2013-02-11 06:35:00,18.0,15.6,30.14,NW,322,2.0,5.0,90,0.00,,,0.00,VWS V14.01,2013-02-11 12:35:00,
2013-02-11 06:40:00,17.8,15.4,30.14,NW,322,0.0,5.0,90,0.00,,,0.00,VWS V14.01,2013-02-11 12:40:00,
2013-02-11 06:45:00,17.7,15.8,30.15,NW,322,2.0,5.0,92,0.00,,,0.00,VWS V14.01,2013-02-11 12:45:00,
2013-02-11 06:50:00,17.5,15.8,30.15,NW,322,2.0,3.0,93,0.00,,,0.00,VWS V14.01,2013-02-11 12:50:00,
2013-02-11 06:55:00,17.5,15.8,30.15,NW,322,1.0,3.0,93,0.00,,,0.00,VWS V14.01,2013-02-11 12:55:00,
2013-02-11 07:00:00,17.5,15.6,30.15,NW,322,2.0,3.0,92,0.00,,,0.00,VWS V14.01,2013-02-11 13:00:00,
2013-02-11 07:05:00,17.7,15.8,30.15,NW,322,3.0,5.0,92,0.00,,,0.00,VWS V14.01,2013-02-11 13:05:00,
2013-02-11 07:10:00,17.8,15.9,30.15,NW,322,2.0,5.0,92,0.00,,,0.00,VWS V14.01,2013-02-11 13:10:00,
2013-02-11 07:15:00,17.8,15.9,30.16,NW,322,2.0,5.0,92,0.00,,,0.00,VWS V14.01,2013-02-11 13:15:00,
2013-02-11 07:20:00,17.8,15.1,30.16,NW,322,3.0,6.0,89,0.00,,,0.00,VWS V14.01,2013-02-11 13:20:00,
2013-02-11 07:25:00,17.8,15.4,30.16,NW,322,1.0,6.0,90,0.00,,,0.00,VWS V14.01,2013-02-11 13:25:00,
2013-02-11 07:30:00,18.0,15.3,30.16,NW,322,0.0,6.0,89,0.00,,,0.00,VWS V14.01,2013-02-11 13:30:00,
2013-02-11 07:35:00,18.1,15.1,30.16,NW,319,0.0,3.0,88,0.00,,,0.00,VWS V14.01,2013-02-11 13:35:00,
2013-02-11 07:40:00,18.4,14.9,30.16,NW,325,3.0,5.0,86,0.00,,,0.00,VWS V14.01,2013-02-11 13:40:00,
2013-02-11 07:45:00,18.9,14.0,30.17,NNW,330,3.0,5.0,81,0.00,,,0.00,VWS V14.01,2013-02-11 13:45:00,
2013-02-11 07:50:00,19.2,13.5,30.17,NNW,340,2.0,7.0,78,0.00,,,0.00,VWS V14.01,2013-02-11 13:50:00,
2013-02-11 07:55:00,19.2,13.8,30.17,North,354,2.0,7.0,79,0.00,,,0.00,VWS V14.01,2013-02-11 13:55:00,
2013-02-11 08:00:00,19.4,13.7,30.17,NW,319,2.0,7.0,78,0.00,,,0.00,VWS V14.01,2013-02-11 14:00:00,
2013-02-11 08:05:00,19.2,13.5,30.17,NW,320,4.0,6.0,78,0.00,,,0.00,VWS V14.01,2013-02-11 14:05:00,
2013-02-11 08:10:00,19.2,13.5,30.17,NW,309,7.0,7.0,78,0.00,,,0.00,VWS V14.01,2013-02-11 14:10:00,
2013-02-11 08:15:00,19.4,13.4,30.17,NNW,337,3.0,8.0,77,0.00,,,0.00,VWS V14.01,2013-02-11 14:15:00,
2013-02-11 08:20:00,19.5,13.5,30.17,NNW,340,3.0,10.0,77,0.00,,,0.00,VWS V14.01,2013-02-11 14:20:00,
2013-02-11 08:25:00,19.5,13.8,30.17,NW,319,2.0,10.0,78,0.00,,,0.00,VWS V14.01,2013-02-11 14:25:00,
2013-02-11 08:30:00,19.7,13.7,30.17,NW,319,2.0,10.0,77,0.00,,,0.00,VWS V14.01,2013-02-11 14:30:00,
2013-02-11 08:35:00,19.7,13.4,30.17,NW,318,2.0,6.0,76,0.00,,,0.00,VWS V14.01,2013-02-11 14:35:00,
2013-02-11 08:40:00,20.0,13.7,30.17,North,10,8.0,8.0,76,0.00,,,0.00,VWS V14.01,2013-02-11 14:40:00,
2013-02-11 08:45:00,20.2,14.2,30.17,NNW,336,5.0,8.0,77,0.00,,,0.00,VWS V14.01,2013-02-11 14:45:00,
2013-02-11 08:50:00,20.3,13.7,30.17,NNW,333,5.0,12.0,75,0.00,,,0.00,VWS V14.01,2013-02-11 14:50:00,
2013-02-11 08:55:00,20.5,13.9,30.17,NNW,347,3.0,12.0,75,0.00,,,0.00,VWS V14.01,2013-02-11 14:55:00,
2013-02-11 09:00:00,20.6,13.3,30.17,NNW,336,6.0,12.0,73,0.00,,,0.00,VWS V14.01,2013-02-11 15:00:00,
2013-02-11 09:05:00,20.8,14.1,30.17,NNW,329,4.0,9.0,75,0.00,,,0.00,VWS V14.01,2013-02-11 15:05:00,
2013-02-11 09:10:00,21.0,13.7,30.17,North,350,10.0,10.0,73,0.00,,,0.00,VWS V14.01,2013-02-11 15:10:00,
2013-02-11 09:15:00,21.3,14.3,30.17,North,359,11.0,12.0,74,0.00,,,0.00,VWS V14.01,2013-02-11 15:15:00,
2013-02-11 09:20:00,21.3,13.7,30.17,NNW,342,7.0,13.0,72,0.00,,,0.00,VWS V14.01,2013-02-11 15:20:00,
2013-02-11 09:25:00,21.3,13.7,30.17,North,359,3.0,14.0,72,0.00,,,0.00,VWS V14.01,2013-02-11 15:25:00,
2013-02-11 09:30:00,21.6,14.9,30.17,North,359,2.0,14.0,75,0.00,,,0.00,VWS V14.01,2013-02-11 15:30:00,
2013-02-11 09:35:00,22.1,14.5,30.17,North,359,3.0,8.0,72,0.00,,,0.00,VWS V14.01,2013-02-11 15:35:00,
2013-02-11 09:40:00,22.4,15.1,30.17,NNW,328,4.0,11.0,73,0.00,,,0.00,VWS V14.01,2013-02-11 15:40:00,
2013-02-11 09:45:00,22.5,14.2,30.18,North,353,11.0,14.0,70,0.00,,,0.00,VWS V14.01,2013-02-11 15:45:00,
2013-02-11 09:50:00,22.7,13.7,30.18,North,359,6.0,14.0,68,0.00,,,0.00,VWS V14.01,2013-02-11 15:50:00,
2013-02-11 09:55:00,23.0,14.4,30.18,North,353,10.0,14.0,69,0.00,,,0.00,VWS V14.01,2013-02-11 15:55:00,
2013-02-11 10:00:00,23.0,13.4,30.18,North,353,8.0,16.0,66,0.00,,,0.00,VWS V14.01,2013-02-11 16:00:00,
2013-02-11 10:05:00,23.2,14.2,30.18,WNW,302,6.0,11.0,68,0.00,,,0.00,VWS V14.01,2013-02-11 16:05:00,
2013-02-11 10:10:00,23.3,14.0,30.18,NNW,333,7.0,11.0,67,0.00,,,0.00,VWS V14.01,2013-02-11 16:10:00,
2013-02-11 10:15:00,23.8,14.1,30.18,North,3,10.0,11.0,66,0.00,,,0.00,VWS V14.01,2013-02-11 16:15:00,
2013-02-11 10:20:00,23.8,15.1,30.18,North,354,12.0,14.0,69,0.00,,,0.00,VWS V14.01,2013-02-11 16:20:00,
2013-02-11 10:25:00,24.1,14.4,30.18,North,359,14.0,14.0,66,0.00,,,0.00,VWS V14.01,2013-02-11 16:25:00,
2013-02-11 10:30:00,23.9,15.2,30.18,North,359,13.0,18.0,69,0.00,,,0.00,VWS V14.01,2013-02-11 16:30:00,
2013-02-11 10:35:00,23.9,14.2,30.18,NNW,344,4.0,14.0,66,0.00,,,0.00,VWS V14.01,2013-02-11 16:35:00,
2013-02-11 10:40:00,24.1,14.1,30.18,North,359,8.0,14.0,65,0.00,,,0.00,VWS V14.01,2013-02-11 16:40:00,
2013-02-11 10:45:00,24.5,14.8,30.18,North,359,11.0,14.0,66,0.00,,,0.00,VWS V14.01,2013-02-11 16:45:00,
2013-02-11 10:50:00,24.5,14.4,30.18,NNW,335,6.0,14.0,65,0.00,,,0.00,VWS V14.01,2013-02-11 16:50:00,
2013-02-11 10:55:00,24.5,15.1,30.18,North,7,10.0,16.0,67,0.00,,,0.00,VWS V14.01,2013-02-11 16:55:00,
2013-02-11 11:00:00,25.0,14.2,30.19,North,357,5.0,16.0,63,0.00,,,0.00,VWS V14.01,2013-02-11 17:00:00,
2013-02-11 11:05:00,25.3,14.5,30.19,North,0,10.0,14.0,63,0.00,,,0.00,VWS V14.01,2013-02-11 17:05:00,
2013-02-11 11:10:00,25.8,15.3,30.19,NNW,335,5.0,14.0,64,0.00,,,0.00,VWS V14.01,2013-02-11 17:10:00,
2013-02-11 11:15:00,25.6,16.5,30.19,North,354,14.0,15.0,68,0.00,,,0.00,VWS V14.01,2013-02-11 17:15:00,
2013-02-11 11:20:00,25.6,15.1,30.19,North,352,12.0,12.0,64,0.00,,,0.00,VWS V14.01,2013-02-11 17:20:00,
2013-02-11 11:25:00,25.7,15.9,30.19,North,359,10.0,14.0,66,0.00,,,0.00,VWS V14.01,2013-02-11 17:25:00,
2013-02-11 11:30:00,26.1,16.3,30.19,North,359,7.0,14.0,66,0.00,,,0.00,VWS V14.01,2013-02-11 17:30:00,
2013-02-11 11:35:00,26.1,14.5,30.19,North,0,11.0,14.0,61,0.00,,,0.00,VWS V14.01,2013-02-11 17:35:00,
2013-02-11 11:40:00,26.3,14.3,30.19,North,354,13.0,14.0,60,0.00,,,0.00,VWS V14.01,2013-02-11 17:40:00,
2013-02-11 11:45:00,26.4,14.8,30.19,North,354,11.0,14.0,61,0.00,,,0.00,VWS V14.01,2013-02-11 17:45:00,
2013-02-11 11:50:00,26.9,15.3,30.19,North,356,10.0,11.0,61,0.00,,,0.00,VWS V14.01,2013-02-11 17:50:00,
2013-02-11 11:55:00,26.9,14.9,30.19,North,354,5.0,17.0,60,0.00,,,0.00,VWS V14.01,2013-02-11 17:55:00,
2013-02-11 12:00:00,26.9,14.9,30.19,North,0,7.0,17.0,60,0.00,,,0.00,VWS V14.01,2013-02-11 18:00:00,
2013-02-11 12:05:00,27.3,14.1,30.19,North,357,12.0,12.0,57,0.00,,,0.00,VWS V14.01,2013-02-11 18:05:00,
2013-02-11 12:10:00,27.6,14.4,30.19,North,359,7.0,13.0,57,0.00,,,0.00,VWS V14.01,2013-02-11 18:10:00,
2013-02-11 12:15:00,27.8,16.1,30.18,North,353,3.0,17.0,61,0.00,,,0.00,VWS V14.01,2013-02-11 18:15:00,
2013-02-11 12:20:00,28.1,15.2,30.18,North,352,11.0,12.0,58,0.00,,,0.00,VWS V14.01,2013-02-11 18:20:00,
2013-02-11 12:25:00,28.4,15.5,30.18,North,359,7.0,14.0,58,0.00,,,0.00,VWS V14.01,2013-02-11 18:25:00,
2013-02-11 12:30:00,28.1,15.6,30.17,North,354,12.0,17.0,59,0.00,,,0.00,VWS V14.01,2013-02-11 18:30:00,
2013-02-11 12:35:00,28.5,15.6,30.17,North,354,10.0,14.0,58,0.00,,,0.00,VWS V14.01,2013-02-11 18:35:00,
2013-02-11 12:40:00,28.8,15.5,30.17,North,349,2.0,14.0,57,0.00,,,0.00,VWS V14.01,2013-02-11 18:40:00,
2013-02-11 12:45:00,29.4,15.7,30.17,NNW,339,2.0,14.0,56,0.00,,,0.00,VWS V14.01,2013-02-11 18:45:00,
2013-02-11 12:50:00,29.8,15.6,30.17,North,359,6.0,7.0,55,0.00,,,0.00,VWS V14.01,2013-02-11 18:50:00,
2013-02-11 12:55:00,30.4,17.0,30.17,WNW,288,1.0,7.0,57,0.00,,,0.00,VWS V14.01,2013-02-11 18:55:00,
2013-02-11 13:00:00,30.7,15.6,30.15,WNW,295,2.0,7.0,53,0.00,,,0.00,VWS V14.01,2013-02-11 19:00:00,
2013-02-11 13:05:00,31.5,17.2,30.15,WNW,294,2.0,5.0,55,0.00,,,0.00,VWS V14.01,2013-02-11 19:05:00,
2013-02-11 13:10:00,31.3,16.6,30.15,NNW,342,3.0,6.0,54,0.00,,,0.00,VWS V14.01,2013-02-11 19:10:00,
2013-02-11 13:15:00,31.5,16.4,30.15,WNW,302,0.0,7.0,53,0.00,,,0.00,VWS V14.01,2013-02-11 19:15:00,
2013-02-11 13:20:00,31.0,17.2,30.15,NNW,346,0.0,6.0,56,0.00,,,0.00,VWS V14.01,2013-02-11 19:20:00,
2013-02-11 13:25:00,31.2,16.9,30.15,NW,326,3.0,6.0,55,0.00,,,0.00,VWS V14.01,2013-02-11 19:25:00,
2013-02-11 13:30:00,31.6,16.5,30.15,NW,326,2.0,6.0,53,0.00,,,0.00,VWS V14.01,2013-02-11 19:30:00,
2013-02-11 13:36:00,31.9,17.2,30.15,WNW,299,0.0,7.0,54,0.01,,,0.01,VWS V14.01,2013-02-11 19:36:00,
2013-02-11 13:41:00,32.4,17.6,30.15,WNW,299,1.0,7.0,54,0.01,,,0.01,VWS V14.01,2013-02-11 19:41:00,
2013-02-11 13:45:00,32.9,16.3,30.12,North,0,3.0,6.0,50,0.01,,,0.01,VWS V14.01,2013-02-11 19:45:00,
2013-02-11 13:46:00,32.8,17.1,30.14,WNW,299,3.0,7.0,52,0.01,,,0.01,VWS V14.01,2013-02-11 19:46:00,
2013-02-11 13:51:00,32.8,17.6,30.14,NNW,333,2.0,6.0,53,0.01,,,0.01,VWS V14.01,2013-02-11 19:51:00,
2013-02-11 13:56:00,32.5,16.9,30.14,NNW,347,3.0,6.0,52,0.01,,,0.01,VWS V14.01,2013-02-11 19:56:00,
2013-02-11 14:00:00,32.5,17.3,30.11,ENE,64,3.0,6.0,53,0.00,,,0.01,VWS V14.01,2013-02-11 20:00:00,
2013-02-11 14:01:00,32.1,16.9,30.13,North,359,4.0,6.0,53,0.01,,,0.01,VWS V14.01,2013-02-11 20:01:00,
2013-02-11 14:06:00,31.6,16.9,30.13,North,1,1.0,6.0,54,0.01,,,0.01,VWS V14.01,2013-02-11 20:06:00,
2013-02-11 14:11:00,31.5,16.8,30.13,North,0,5.0,6.0,54,0.01,,,0.01,VWS V14.01,2013-02-11 20:11:00,
2013-02-11 14:15:00,33.5,17.8,30.11,ENE,64,0.0,5.0,52,0.00,,,0.01,VWS V14.01,2013-02-11 20:15:00,
2013-02-11 14:16:00,31.5,17.2,30.13,NNE,24,0.0,6.0,55,0.01,,,0.01,VWS V14.01,2013-02-11 20:16:00,
2013-02-11 14:21:00,31.9,16.3,30.13,NNE,24,0.0,5.0,52,0.01,,,0.01,VWS V14.01,2013-02-11 20:21:00,
2013-02-11 14:26:00,32.8,16.2,30.13,North,352,2.0,7.0,50,0.01,,,0.01,VWS V14.01,2013-02-11 20:26:00,
2013-02-11 14:30:00,33.4,16.3,30.10,ENE,59,2.0,6.0,49,0.00,,,0.01,VWS V14.01,2013-02-11 20:30:00,
2013-02-11 14:31:00,33.1,16.0,30.12,North,356,0.0,7.0,49,0.01,,,0.01,VWS V14.01,2013-02-11 20:31:00,
2013-02-11 14:36:00,32.9,15.4,30.12,North,356,6.0,6.0,48,0.01,,,0.01,VWS V14.01,2013-02-11 20:36:00,
2013-02-11 14:41:00,33.1,17.4,30.12,North,356,3.0,6.0,52,0.01,,,0.01,VWS V14.01,2013-02-11 20:41:00,
2013-02-11 14:45:00,34.9,12.5,30.09,ENE,59,2.0,5.0,39,0.00,,,0.01,VWS V14.01,2013-02-11 20:45:00,
2013-02-11 14:46:00,32.9,16.3,30.12,North,0,3.0,6.0,50,0.01,,,0.01,VWS V14.01,2013-02-11 20:46:00,
2013-02-11 14:51:00,32.9,15.4,30.12,North,0,0.0,5.0,48,0.00,,,0.01,VWS V14.01,2013-02-11 20:51:00,
2013-02-11 14:56:00,32.5,17.3,30.12,NNE,28,0.0,5.0,53,0.00,,,0.01,VWS V14.01,2013-02-11 20:56:00,
2013-02-11 15:00:00,36.0,11.6,30.08,WSW,253,5.0,7.0,36,0.00,,,0.01,VWS V14.01,2013-02-11 21:00:00,
2013-02-11 15:01:00,32.5,17.3,30.11,ENE,64,2.0,6.0,53,0.00,,,0.01,VWS V14.01,2013-02-11 21:01:00,
2013-02-11 15:06:00,32.9,17.2,30.11,ENE,64,3.0,5.0,52,0.00,,,0.01,VWS V14.01,2013-02-11 21:06:00,
2013-02-11 15:11:00,33.1,18.3,30.11,ENE,64,2.0,5.0,54,0.00,,,0.01,VWS V14.01,2013-02-11 21:11:00,
2013-02-11 15:15:00,36.2,12.4,30.09,WSW,253,0.0,6.0,37,0.00,,,0.01,VWS V14.01,2013-02-11 21:15:00,
2013-02-11 15:16:00,33.5,17.8,30.11,ENE,64,0.0,5.0,52,0.00,,,0.01,VWS V14.01,2013-02-11 21:16:00,
2013-02-11 15:21:00,33.2,17.5,30.11,ENE,66,2.0,6.0,52,0.00,,,0.01,VWS V14.01,2013-02-11 21:21:00,
2013-02-11 15:26:00,33.4,16.8,30.11,ENE,59,0.0,6.0,50,0.00,,,0.01,VWS V14.01,2013-02-11 21:26:00,
2013-02-11 15:30:00,36.2,13.6,30.09,West,263,2.0,6.0,39,0.00,,,0.01,VWS V14.01,2013-02-11 21:30:00,
2013-02-11 15:31:00,33.4,16.3,30.10,ENE,59,2.0,6.0,49,0.00,,,0.01,VWS V14.01,2013-02-11 21:31:00,
2013-02-11 15:36:00,34.0,15.9,30.10,ENE,59,0.0,2.0,47,0.00,,,0.01,VWS V14.01,2013-02-11 21:36:00,
2013-02-11 15:41:00,34.1,17.9,30.10,ENE,59,1.0,5.0,51,0.00,,,0.01,VWS V14.01,2013-02-11 21:41:00,
2013-02-11 15:45:00,36.0,14.0,30.09,WSW,243,6.0,7.0,40,0.00,,,0.01,VWS V14.01,2013-02-11 21:45:00,
2013-02-11 15:46:00,34.9,12.5,30.09,ENE,59,3.0,5.0,39,0.00,,,0.01,VWS V14.01,2013-02-11 21:46:00,
2013-02-11 15:51:00,35.8,11.5,30.09,NW,306,1.0,5.0,36,0.00,,,0.01,VWS V14.01,2013-02-11 21:51:00,
2013-02-11 15:56:00,36.0,11.6,30.09,NW,306,1.0,5.0,36,0.00,,,0.01,VWS V14.01,2013-02-11 21:56:00,
2013-02-11 16:00:00,35.6,13.1,30.09,WSW,247,7.0,11.0,39,0.00,,,0.01,VWS V14.01,2013-02-11 22:00:00,
2013-02-11 16:01:00,36.2,11.8,30.08,WSW,253,5.0,7.0,36,0.00,,,0.01,VWS V14.01,2013-02-11 22:01:00,
2013-02-11 16:06:00,36.2,12.4,30.08,WSW,253,2.0,6.0,37,0.00,,,0.01,VWS V14.01,2013-02-11 22:06:00,
2013-02-11 16:11:00,36.2,12.4,30.08,WSW,253,2.0,6.0,37,0.00,,,0.01,VWS V14.01,2013-02-11 22:11:00,
2013-02-11 16:15:00,35.8,17.6,30.09,West,261,0.0,7.0,47,0.00,,,0.01,VWS V14.01,2013-02-11 22:15:00,
2013-02-11 16:16:00,36.0,12.3,30.09,WSW,253,0.0,6.0,37,0.00,,,0.01,VWS V14.01,2013-02-11 22:16:00,
2013-02-11 16:21:00,36.2,12.4,30.09,WSW,256,6.0,6.0,37,0.00,,,0.01,VWS V14.01,2013-02-11 22:21:00,
2013-02-11 16:26:00,36.0,12.3,30.09,WSW,257,2.0,6.0,37,0.00,,,0.01,VWS V14.01,2013-02-11 22:26:00,
2013-02-11 16:30:00,35.3,17.6,30.10,West,261,2.0,5.0,48,0.00,,,0.01,VWS V14.01,2013-02-11 22:30:00,
2013-02-11 16:31:00,36.2,13.6,30.09,West,263,2.0,6.0,39,0.00,,,0.01,VWS V14.01,2013-02-11 22:31:00,
2013-02-11 16:36:00,36.2,14.2,30.09,WSW,246,3.0,7.0,40,0.00,,,0.01,VWS V14.01,2013-02-11 22:36:00,
2013-02-11 16:41:00,36.0,14.0,30.09,WSW,241,3.0,7.0,40,0.00,,,0.01,VWS V14.01,2013-02-11 22:41:00,
2013-02-11 16:45:00,34.9,19.5,30.10,West,275,0.0,3.0,53,0.00,,,0.01,VWS V14.01,2013-02-11 22:45:00,
2013-02-11 16:46:00,36.0,14.0,30.09,WSW,243,6.0,7.0,40,0.00,,,0.01,VWS V14.01,2013-02-11 22:46:00,
2013-02-11 16:51:00,35.8,13.3,30.09,WSW,239,3.0,11.0,39,0.00,,,0.01,VWS V14.01,2013-02-11 22:51:00,
2013-02-11 16:56:00,35.6,13.1,30.09,WSW,254,4.0,11.0,39,0.00,,,0.01,VWS V14.01,2013-02-11 22:56:00,
2013-02-11 17:00:00,33.1,18.3,30.11,West,275,2.0,3.0,54,0.00,,,0.01,VWS V14.01,2013-02-11 23:00:00,
2013-02-11 17:01:00,35.6,13.1,30.09,WSW,247,7.0,11.0,39,0.00,,,0.01,VWS V14.01,2013-02-11 23:01:00,
2013-02-11 17:06:00,35.6,13.7,30.09,WSW,254,7.0,7.0,40,0.00,,,0.01,VWS V14.01,2013-02-11 23:06:00,
2013-02-11 17:11:00,35.8,14.4,30.09,WSW,254,3.0,7.0,41,0.00,,,0.01,VWS V14.01,2013-02-11 23:11:00,
2013-02-11 17:15:00,31.5,17.2,30.12,West,275,2.0,2.0,55,0.00,,,0.01,VWS V14.01,2013-02-11 23:15:00,
2013-02-11 17:16:00,35.8,17.6,30.09,West,261,0.0,7.0,47,0.00,,,0.01,VWS V14.01,2013-02-11 23:16:00,
2013-02-11 17:21:00,35.5,19.2,30.09,West,261,1.0,5.0,51,0.00,,,0.01,VWS V14.01,2013-02-11 23:21:00,
2013-02-11 17:26:00,35.3,17.6,30.09,West,261,1.0,5.0,48,0.00,,,0.01,VWS V14.01,2013-02-11 23:26:00,
2013-02-11 17:30:00,30.7,17.7,30.13,West,275,3.0,3.0,58,0.00,,,0.01,VWS V14.01,2013-02-11 23:30:00,
2013-02-11 17:31:00,35.3,17.6,30.10,West,261,2.0,5.0,48,0.00,,,0.01,VWS V14.01,2013-02-11 23:31:00,
2013-02-11 17:36:00,35.2,18.0,30.10,West,261,2.0,2.0,49,0.00,,,0.01,VWS V14.01,2013-02-11 23:36:00,
2013-02-11 17:41:00,35.0,18.7,30.10,West,275,0.0,3.0,51,0.00,,,0.01,VWS V14.01,2013-02-11 23:41:00,
2013-02-11 17:45:00,30.4,17.8,30.14,West,275,0.0,3.0,59,0.00,,,0.01,VWS V14.01,2013-02-11 23:45:00,
2013-02-11 17:46:00,34.9,19.5,30.10,West,275,0.0,3.0,53,0.00,,,0.01,VWS V14.01,2013-02-11 23:46:00,
2013-02-11 17:51:00,34.4,19.9,30.10,West,275,1.0,2.0,55,0.00,,,0.01,VWS V14.01,2013-02-11 23:51:00,
2013-02-11 17:56:00,33.7,19.7,30.10,West,275,0.0,2.0,56,0.00,,,0.01,VWS V14.01,2013-02-11 23:56:00,
2013-02-11 18:00:00,30.7,16.9,30.14,WNW,294,0.0,5.0,56,0.00,,,0.01,VWS V14.01,2013-02-12 00:00:00,
2013-02-11 18:01:00,33.2,18.4,30.11,West,275,2.0,3.0,54,0.00,,,0.01,VWS V14.01,2013-02-12 00:01:00,
2013-02-11 18:06:00,32.7,17.9,30.11,West,275,0.0,2.0,54,0.00,,,0.01,VWS V14.01,2013-02-12 00:06:00,
2013-02-11 18:11:00,32.1,17.3,30.11,West,275,0.0,2.0,54,0.00,,,0.01,VWS V14.01,2013-02-12 00:11:00,
2013-02-11 18:15:00,30.7,17.7,30.13,WNW,294,0.0,2.0,58,0.00,,,0.01,VWS V14.01,2013-02-12 00:15:00,
2013-02-11 18:16:00,31.5,17.2,30.12,West,275,2.0,2.0,55,0.00,,,0.01,VWS V14.01,2013-02-12 00:16:00,
2013-02-11 18:21:00,31.2,16.5,30.12,West,275,2.0,2.0,54,0.00,,,0.01,VWS V14.01,2013-02-12 00:21:00,
2013-02-11 18:26:00,31.0,17.2,30.12,West,275,1.0,2.0,56,0.00,,,0.01,VWS V14.01,2013-02-12 00:26:00,
2013-02-11 18:30:00,30.4,17.8,30.13,NNW,339,3.0,5.0,59,0.00,,,0.01,VWS V14.01,2013-02-12 00:30:00,
2013-02-11 18:31:00,30.7,17.7,30.13,West,275,2.0,3.0,58,0.00,,,0.01,VWS V14.01,2013-02-12 00:31:00,
2013-02-11 18:36:00,30.6,17.2,30.13,West,275,0.0,3.0,57,0.00,,,0.01,VWS V14.01,2013-02-12 00:36:00,
2013-02-11 18:41:00,30.4,17.4,30.13,West,275,0.0,3.0,58,0.00,,,0.01,VWS V14.01,2013-02-12 00:41:00,
2013-02-11 18:45:00,30.0,18.2,30.14,NNW,344,2.0,5.0,61,0.00,,,0.01,VWS V14.01,2013-02-12 00:45:00,
2013-02-11 18:46:00,30.4,17.8,30.14,West,275,0.0,3.0,59,0.00,,,0.01,VWS V14.01,2013-02-12 00:46:00,
2013-02-11 18:51:00,30.4,17.8,30.14,WNW,294,2.0,5.0,59,0.00,,,0.01,VWS V14.01,2013-02-12 00:51:00,
2013-02-11 18:56:00,30.6,17.6,30.14,WNW,294,1.0,5.0,58,0.00,,,0.01,VWS V14.01,2013-02-12 00:56:00,
2013-02-11 19:00:00,29.4,19.1,30.15,NNW,346,0.0,3.0,65,0.00,,,0.01,VWS V14.01,2013-02-12 01:00:00,
2013-02-11 19:01:00,30.7,16.9,30.14,WNW,294,0.0,0.0,56,0.00,,,0.01,VWS V14.01,2013-02-12 01:01:00,
2013-02-11 19:06:00,30.7,16.9,30.14,WNW,294,0.0,0.0,56,0.00,,,0.01,VWS V14.01,2013-02-12 01:06:00,
2013-02-11 19:11:00,30.7,18.1,30.14,WNW,294,0.0,0.0,59,0.00,,,0.01,VWS V14.01,2013-02-12 01:11:00,
2013-02-11 19:15:00,28.8,18.9,30.14,NNW,346,0.0,3.0,66,0.00,,,0.01,VWS V14.01,2013-02-12 01:15:00,
2013-02-11 19:16:00,30.7,17.7,30.13,WNW,294,1.0,1.0,58,0.00,,,0.01,VWS V14.01,2013-02-12 01:16:00,
2013-02-11 19:21:00,30.7,18.1,30.13,WNW,295,0.0,2.0,59,0.00,,,0.01,VWS V14.01,2013-02-12 01:21:00,
2013-02-11 19:26:00,30.6,18.0,30.13,WNW,299,2.0,3.0,59,0.00,,,0.01,VWS V14.01,2013-02-12 01:26:00,
2013-02-11 19:30:00,28.4,18.5,30.15,NNW,346,0.0,1.0,66,0.00,,,0.01,VWS V14.01,2013-02-12 01:30:00,
2013-02-11 19:31:00,30.4,17.8,30.13,NNW,339,3.0,5.0,59,0.00,,,0.01,VWS V14.01,2013-02-12 01:31:00,
2013-02-11 19:36:00,30.3,18.1,30.13,NNW,339,0.0,3.0,60,0.00,,,0.01,VWS V14.01,2013-02-12 01:36:00,
2013-02-11 19:41:00,30.1,17.9,30.13,NNW,344,0.0,5.0,60,0.00,,,0.01,VWS V14.01,2013-02-12 01:41:00,
2013-02-11 19:45:00,27.6,18.1,30.15,NNW,346,0.0,0.0,67,0.00,,,0.01,VWS V14.01,2013-02-12 01:45:00,
2013-02-11 19:46:00,30.0,18.2,30.14,NNW,344,1.0,2.0,61,0.00,,,0.01,VWS V14.01,2013-02-12 01:46:00,
2013-02-11 19:51:00,29.7,18.7,30.14,NNW,346,0.0,3.0,63,0.00,,,0.01,VWS V14.01,2013-02-12 01:51:00,
2013-02-11 19:56:00,29.5,18.8,30.14,NNW,346,1.0,3.0,64,0.00,,,0.01,VWS V14.01,2013-02-12 01:56:00,
2013-02-11 20:00:00,27.0,18.2,30.16,NNW,346,0.0,0.0,69,0.00,,,0.01,VWS V14.01,2013-02-12 02:00:00,
2013-02-11 20:01:00,29.4,19.1,30.15,NNW,346,0.0,0.0,65,0.00,,,0.01,VWS V14.01,2013-02-12 02:01:00,
2013-02-11 20:06:00,29.3,19.0,30.15,NNW,346,1.0,2.0,65,0.00,,,0.01,VWS V14.01,2013-02-12 02:06:00,
2013-02-11 20:11:00,29.1,19.2,30.15,NNW,346,0.0,3.0,66,0.00,,,0.01,VWS V14.01,2013-02-12 02:11:00,
2013-02-11 20:15:00,26.9,17.8,30.15,NNW,346,0.0,1.0,68,0.00,,,0.01,VWS V14.01,2013-02-12 02:15:00,
2013-02-11 20:16:00,28.8,18.9,30.14,NNW,346,0.0,0.0,66,0.00,,,0.01,VWS V14.01,2013-02-12 02:16:00,
2013-02-11 20:21:00,28.7,18.8,30.14,NNW,346,0.0,1.0,66,0.00,,,0.01,VWS V14.01,2013-02-12 02:21:00,
2013-02-11 20:26:00,28.5,18.6,30.14,NNW,346,0.0,1.0,66,0.00,,,0.01,VWS V14.01,2013-02-12 02:26:00,
2013-02-11 20:30:00,26.6,18.8,30.15,NNW,346,0.0,1.0,72,0.00,,,0.01,VWS V14.01,2013-02-12 02:30:00,
2013-02-11 20:31:00,28.4,18.5,30.15,NNW,346,0.0,1.0,66,0.00,,,0.01,VWS V14.01,2013-02-12 02:31:00,
2013-02-11 20:36:00,28.2,18.7,30.15,NNW,346,0.0,0.0,67,0.00,,,0.01,VWS V14.01,2013-02-12 02:36:00,
2013-02-11 20:41:00,27.9,18.4,30.15,NNW,346,0.0,0.0,67,0.00,,,0.01,VWS V14.01,2013-02-12 02:41:00,
2013-02-11 20:45:00,26.1,18.6,30.16,NNW,346,0.0,0.0,73,0.00,,,0.01,VWS V14.01,2013-02-12 02:45:00,
2013-02-11 20:46:00,27.6,18.1,30.15,NNW,346,0.0,0.0,67,0.00,,,0.01,VWS V14.01,2013-02-12 02:46:00,
2013-02-11 20:51:00,27.5,18.0,30.15,NNW,346,0.0,0.0,67,0.00,,,0.01,VWS V14.01,2013-02-12 02:51:00,
2013-02-11 20:56:00,27.2,18.0,30.15,NNW,346,0.0,0.0,68,0.00,,,0.01,VWS V14.01,2013-02-12 02:56:00,
2013-02-11 21:00:00,25.8,18.4,30.16,NNW,346,2.0,2.0,73,0.00,,,0.01,VWS V14.01,2013-02-12 03:00:00,
2013-02-11 21:01:00,27.0,18.2,30.16,NNW,346,0.0,0.0,69,0.00,,,0.01,VWS V14.01,2013-02-12 03:01:00,
2013-02-11 21:06:00,26.9,18.1,30.16,NNW,346,0.0,0.0,69,0.00,,,0.01,VWS V14.01,2013-02-12 03:06:00,
2013-02-11 21:11:00,26.9,17.4,30.16,NNW,346,0.0,1.0,67,0.00,,,0.01,VWS V14.01,2013-02-12 03:11:00,
2013-02-11 21:15:00,24.8,19.2,30.16,NNW,346,2.0,2.0,79,0.00,,,0.01,VWS V14.01,2013-02-12 03:15:00,
2013-02-11 21:16:00,26.9,17.8,30.15,NNW,346,0.0,0.0,68,0.00,,,0.01,VWS V14.01,2013-02-12 03:16:00,
2013-02-11 21:21:00,26.9,18.4,30.15,NNW,346,0.0,1.0,70,0.00,,,0.01,VWS V14.01,2013-02-12 03:21:00,
2013-02-11 21:26:00,26.7,18.6,30.15,NNW,346,0.0,1.0,71,0.00,,,0.01,VWS V14.01,2013-02-12 03:26:00,
2013-02-11 21:30:00,24.2,19.8,30.16,NNW,346,1.0,3.0,83,0.00,,,0.01,VWS V14.01,2013-02-12 03:30:00,
2013-02-11 21:31:00,26.6,18.8,30.15,NNW,346,0.0,1.0,72,0.00,,,0.01,VWS V14.01,2013-02-12 03:31:00,
2013-02-11 21:36:00,26.6,18.8,30.15,NNW,346,0.0,0.0,72,0.00,,,0.01,VWS V14.01,2013-02-12 03:36:00,
2013-02-11 21:41:00,26.4,18.6,30.15,NNW,346,0.0,0.0,72,0.00,,,0.01,VWS V14.01,2013-02-12 03:41:00,
2013-02-11 21:45:00,23.9,18.9,30.16,NNW,346,1.0,2.0,81,0.00,,,0.01,VWS V14.01,2013-02-12 03:45:00,
2013-02-11 21:46:00,26.1,18.6,30.16,NNW,346,0.0,0.0,73,0.00,,,0.01,VWS V14.01,2013-02-12 03:46:00,
2013-02-11 21:51:00,26.0,18.5,30.16,NNW,346,0.0,0.0,73,0.00,,,0.01,VWS V14.01,2013-02-12 03:51:00,
2013-02-11 21:56:00,25.8,18.4,30.16,NNW,346,0.0,2.0,73,0.00,,,0.01,VWS V14.01,2013-02-12 03:56:00,
2013-02-11 22:00:00,24.1,18.0,30.16,NNW,346,1.0,2.0,77,0.00,,,0.01,VWS V14.01,2013-02-12 04:00:00,
2013-02-11 22:01:00,25.8,18.4,30.16,NNW,346,1.0,2.0,73,0.00,,,0.01,VWS V14.01,2013-02-12 04:01:00,
2013-02-11 22:06:00,25.6,18.5,30.16,NNW,346,2.0,2.0,74,0.00,,,0.01,VWS V14.01,2013-02-12 04:06:00,
2013-02-11 22:11:00,25.3,18.5,30.16,NNW,346,1.0,2.0,75,0.00,,,0.01,VWS V14.01,2013-02-12 04:11:00,
2013-02-11 22:15:00,24.2,17.7,30.15,NNW,346,2.0,5.0,76,0.00,,,0.01,VWS V14.01,2013-02-12 04:15:00,
2013-02-11 22:16:00,24.8,19.2,30.16,NNW,346,1.0,2.0,79,0.00,,,0.01,VWS V14.01,2013-02-12 04:16:00,
2013-02-11 22:21:00,24.7,19.4,30.16,NNW,346,2.0,3.0,80,0.00,,,0.01,VWS V14.01,2013-02-12 04:21:00,
2013-02-11 22:26:00,24.5,19.5,30.16,NNW,346,2.0,3.0,81,0.00,,,0.01,VWS V14.01,2013-02-12 04:26:00,
2013-02-11 22:30:00,23.5,18.0,30.15,NNW,346,2.0,4.0,79,0.00,,,0.01,VWS V14.01,2013-02-12 04:30:00,
2013-02-11 22:31:00,24.2,19.8,30.16,NNW,346,1.0,2.0,83,0.00,,,0.01,VWS V14.01,2013-02-12 04:31:00,
2013-02-11 22:36:00,24.1,20.2,30.16,NNW,346,0.0,2.0,85,0.00,,,0.01,VWS V14.01,2013-02-12 04:36:00,
2013-02-11 22:41:00,23.9,19.8,30.16,NNW,346,0.0,2.0,84,0.00,,,0.01,VWS V14.01,2013-02-12 04:41:00,
2013-02-11 22:45:00,23.3,17.5,30.14,NNW,344,3.0,5.0,78,0.00,,,0.01,VWS V14.01,2013-02-12 04:45:00,
2013-02-11 22:46:00,23.9,18.9,30.16,NNW,346,1.0,1.0,81,0.00,,,0.01,VWS V14.01,2013-02-12 04:46:00,
2013-02-11 22:51:00,24.1,18.8,30.16,NNW,346,1.0,2.0,80,0.00,,,0.01,VWS V14.01,2013-02-12 04:51:00,
2013-02-11 22:56:00,24.1,18.5,30.16,NNW,346,1.0,2.0,79,0.00,,,0.01,VWS V14.01,2013-02-12 04:56:00,
2013-02-11 23:00:00,24.1,18.5,30.16,NNW,346,2.0,2.0,79,0.00,,,0.01,VWS V14.01,2013-02-12 05:00:00,
2013-02-11 23:05:00,24.1,18.2,30.16,NNW,346,2.0,2.0,78,0.00,,,0.01,VWS V14.01,2013-02-12 05:05:00,
2013-02-11 23:10:00,24.4,17.9,30.16,NNW,346,2.0,5.0,76,0.00,,,0.01,VWS V14.01,2013-02-12 05:10:00,
2013-02-11 23:15:00,24.2,17.7,30.16,NNW,346,2.0,5.0,76,0.00,,,0.01,VWS V14.01,2013-02-12 05:15:00,
2013-02-11 23:20:00,23.9,17.8,30.15,NNW,346,2.0,2.0,77,0.00,,,0.01,VWS V14.01,2013-02-12 05:20:00,
2013-02-11 23:25:00,23.6,17.8,30.15,NNW,346,2.0,4.0,78,0.00,,,0.01,VWS V14.01,2013-02-12 05:25:00,
2013-02-11 23:30:00,23.5,18.0,30.15,NNW,346,1.0,4.0,79,0.00,,,0.01,VWS V14.01,2013-02-12 05:30:00,
2013-02-11 23:35:00,23.5,18.0,30.15,NNW,346,4.0,5.0,79,0.00,,,0.01,VWS V14.01,2013-02-12 05:35:00,
2013-02-11 23:40:00,23.3,17.5,30.15,NNW,346,3.0,5.0,78,0.00,,,0.01,VWS V14.01,2013-02-12 05:40:00,
2013-02-11 23:45:00,23.3,17.8,30.15,NNW,344,2.0,5.0,79,0.00,,,0.01,VWS V14.01,2013-02-12 05:45:00,
2013-02-11 23:50:00,23.0,17.8,30.14,NNW,344,2.0,5.0,80,0.00,,,0.01,VWS V14.01,2013-02-12 05:50:00,
2013-02-11 23:55:00,22.9,17.7,30.14,NNW,344,3.0,5.0,80,0.00,,,0.01,VWS V14.01,2013-02-12 05:55:00,